sensor_id;sensor_type;location;lat;lon;timestamp;P1;durP1;ratioP1;P2;durP2;ratioP2
40701;SDS011;26387;50.114;8.662;2022-07-29T00:00:37;9.70;;;2.03;;
40701;SDS011;26387;50.114;8.662;2022-07-29T00:03:03;6.82;;;1.70;;
40701;SDS011;26387;50.114;8.662;2022-07-29T00:05:28;4.88;;;1.73;;
40701;SDS011;26387;50.114;8.662;2022-07-29T00:07:54;6.65;;;2.05;;
40701;SDS011;26387;50.114;8.662;2022-07-29T00:10:20;6.40;;;2.05;;
40701;SDS011;26387;50.114;8.662;2022-07-29T00:12:45;7.53;;;2.17;;
40701;SDS011;26387;50.114;8.662;2022-07-29T00:15:12;7.70;;;1.95;;
40701;SDS011;26387;50.114;8.662;2022-07-29T00:17:38;7.43;;;1.98;;
40701;SDS011;26387;50.114;8.662;2022-07-29T00:20:04;7.63;;;1.70;;
40701;SDS011;26387;50.114;8.662;2022-07-29T00:22:30;5.63;;;2.10;;
40701;SDS011;26387;50.114;8.662;2022-07-29T00:24:55;6.22;;;2.08;;
40701;SDS011;26387;50.114;8.662;2022-07-29T00:27:21;6.95;;;1.77;;
40701;SDS011;26387;50.114;8.662;2022-07-29T00:29:47;11.90;;;2.20;;
40701;SDS011;26387;50.114;8.662;2022-07-29T00:32:12;14.45;;;2.10;;
40701;SDS011;26387;50.114;8.662;2022-07-29T00:34:38;6.50;;;2.00;;
40701;SDS011;26387;50.114;8.662;2022-07-29T00:37:23;7.22;;;1.85;;
40701;SDS011;26387;50.114;8.662;2022-07-29T00:39:48;4.57;;;1.70;;
40701;SDS011;26387;50.114;8.662;2022-07-29T00:42:14;6.30;;;2.28;;
40701;SDS011;26387;50.114;8.662;2022-07-29T00:44:41;5.13;;;1.90;;
40701;SDS011;26387;50.114;8.662;2022-07-29T00:47:07;9.90;;;1.80;;
40701;SDS011;26387;50.114;8.662;2022-07-29T00:49:34;3.80;;;1.83;;
40701;SDS011;26387;50.114;8.662;2022-07-29T00:52:03;5.75;;;1.83;;
40701;SDS011;26387;50.114;8.662;2022-07-29T00:54:30;5.03;;;1.80;;
40701;SDS011;26387;50.114;8.662;2022-07-29T00:56:58;7.55;;;1.92;;
40701;SDS011;26387;50.114;8.662;2022-07-29T00:59:24;6.97;;;1.92;;
40701;SDS011;26387;50.114;8.662;2022-07-29T01:01:53;7.47;;;2.13;;
40701;SDS011;26387;50.114;8.662;2022-07-29T01:04:20;7.90;;;1.90;;
40701;SDS011;26387;50.114;8.662;2022-07-29T01:06:47;6.97;;;1.90;;
40701;SDS011;26387;50.114;8.662;2022-07-29T01:09:15;5.60;;;1.80;;
40701;SDS011;26387;50.114;8.662;2022-07-29T01:11:43;6.00;;;2.30;;
40701;SDS011;26387;50.114;8.662;2022-07-29T01:14:10;8.93;;;2.20;;
40701;SDS011;26387;50.114;8.662;2022-07-29T01:16:42;6.72;;;2.50;;
40701;SDS011;26387;50.114;8.662;2022-07-29T01:19:22;7.50;;;2.42;;
40701;SDS011;26387;50.114;8.662;2022-07-29T01:21:57;6.22;;;2.35;;
40701;SDS011;26387;50.114;8.662;2022-07-29T01:24:39;4.13;;;2.15;;
40701;SDS011;26387;50.114;8.662;2022-07-29T01:30:16;5.63;;;2.15;;
40701;SDS011;26387;50.114;8.662;2022-07-29T01:32:42;8.60;;;2.42;;
40701;SDS011;26387;50.114;8.662;2022-07-29T01:35:15;5.47;;;2.15;;
40701;SDS011;26387;50.114;8.662;2022-07-29T01:37:47;4.88;;;2.40;;
40701;SDS011;26387;50.114;8.662;2022-07-29T01:40:31;9.85;;;2.28;;
40701;SDS011;26387;50.114;8.662;2022-07-29T01:43:03;5.88;;;2.28;;
40701;SDS011;26387;50.114;8.662;2022-07-29T01:45:56;6.70;;;2.45;;
40701;SDS011;26387;50.114;8.662;2022-07-29T01:48:34;5.82;;;2.67;;
40701;SDS011;26387;50.114;8.662;2022-07-29T01:51:14;6.35;;;2.55;;
40701;SDS011;26387;50.114;8.662;2022-07-29T01:54:29;12.52;;;2.50;;
40701;SDS011;26387;50.114;8.662;2022-07-29T01:56:37;10.65;;;2.40;;
40701;SDS011;26387;50.114;8.662;2022-07-29T01:59:06;7.03;;;2.60;;
40701;SDS011;26387;50.114;8.662;2022-07-29T02:01:34;4.95;;;2.17;;
40701;SDS011;26387;50.114;8.662;2022-07-29T02:04:04;5.72;;;2.30;;
40701;SDS011;26387;50.114;8.662;2022-07-29T02:06:32;11.32;;;2.70;;
40701;SDS011;26387;50.114;8.662;2022-07-29T02:08:59;6.80;;;2.50;;
40701;SDS011;26387;50.114;8.662;2022-07-29T02:11:27;13.13;;;2.85;;
40701;SDS011;26387;50.114;8.662;2022-07-29T02:13:54;8.30;;;2.40;;
40701;SDS011;26387;50.114;8.662;2022-07-29T02:16:22;5.47;;;2.60;;
40701;SDS011;26387;50.114;8.662;2022-07-29T02:18:52;7.20;;;2.38;;
40701;SDS011;26387;50.114;8.662;2022-07-29T02:21:19;8.50;;;2.80;;
40701;SDS011;26387;50.114;8.662;2022-07-29T02:23:49;6.28;;;2.50;;
40701;SDS011;26387;50.114;8.662;2022-07-29T02:26:18;7.40;;;2.60;;
40701;SDS011;26387;50.114;8.662;2022-07-29T02:28:45;5.78;;;2.28;;
40701;SDS011;26387;50.114;8.662;2022-07-29T02:31:12;7.25;;;2.92;;
40701;SDS011;26387;50.114;8.662;2022-07-29T02:33:39;7.85;;;2.40;;
40701;SDS011;26387;50.114;8.662;2022-07-29T02:36:06;6.10;;;2.42;;
40701;SDS011;26387;50.114;8.662;2022-07-29T02:38:32;10.60;;;2.60;;
40701;SDS011;26387;50.114;8.662;2022-07-29T02:41:28;6.20;;;2.55;;
40701;SDS011;26387;50.114;8.662;2022-07-29T02:43:55;6.95;;;2.50;;
40701;SDS011;26387;50.114;8.662;2022-07-29T02:46:30;6.05;;;2.58;;
40701;SDS011;26387;50.114;8.662;2022-07-29T02:49:03;7.30;;;2.83;;
40701;SDS011;26387;50.114;8.662;2022-07-29T02:51:53;5.93;;;2.40;;
40701;SDS011;26387;50.114;8.662;2022-07-29T02:54:26;6.43;;;2.80;;
40701;SDS011;26387;50.114;8.662;2022-07-29T02:57:11;4.50;;;2.58;;
40701;SDS011;26387;50.114;8.662;2022-07-29T02:59:44;5.63;;;2.78;;
40701;SDS011;26387;50.114;8.662;2022-07-29T03:02:12;5.93;;;2.88;;
40701;SDS011;26387;50.114;8.662;2022-07-29T03:04:40;12.70;;;3.10;;
40701;SDS011;26387;50.114;8.662;2022-07-29T03:07:07;6.68;;;2.60;;
40701;SDS011;26387;50.114;8.662;2022-07-29T03:09:34;6.85;;;2.90;;
40701;SDS011;26387;50.114;8.662;2022-07-29T03:12:03;9.15;;;3.10;;
40701;SDS011;26387;50.114;8.662;2022-07-29T03:14:29;12.98;;;2.97;;
40701;SDS011;26387;50.114;8.662;2022-07-29T03:16:56;6.70;;;3.47;;
40701;SDS011;26387;50.114;8.662;2022-07-29T03:19:23;4.95;;;2.78;;
40701;SDS011;26387;50.114;8.662;2022-07-29T03:21:49;6.68;;;2.92;;
40701;SDS011;26387;50.114;8.662;2022-07-29T03:24:28;6.38;;;2.95;;
40701;SDS011;26387;50.114;8.662;2022-07-29T03:26:56;8.45;;;3.25;;
40701;SDS011;26387;50.114;8.662;2022-07-29T03:29:22;5.07;;;2.65;;
40701;SDS011;26387;50.114;8.662;2022-07-29T03:31:48;8.55;;;2.70;;
40701;SDS011;26387;50.114;8.662;2022-07-29T03:34:14;9.55;;;2.92;;
40701;SDS011;26387;50.114;8.662;2022-07-29T03:36:39;6.38;;;2.80;;
40701;SDS011;26387;50.114;8.662;2022-07-29T03:39:05;8.10;;;3.00;;
40701;SDS011;26387;50.114;8.662;2022-07-29T03:41:33;5.00;;;2.78;;
40701;SDS011;26387;50.114;8.662;2022-07-29T03:44:00;9.23;;;3.10;;
40701;SDS011;26387;50.114;8.662;2022-07-29T03:46:27;7.65;;;2.78;;
40701;SDS011;26387;50.114;8.662;2022-07-29T03:48:55;7.15;;;3.22;;
40701;SDS011;26387;50.114;8.662;2022-07-29T03:51:23;6.28;;;2.88;;
40701;SDS011;26387;50.114;8.662;2022-07-29T03:53:50;7.05;;;3.00;;
40701;SDS011;26387;50.114;8.662;2022-07-29T03:56:16;4.97;;;2.78;;
40701;SDS011;26387;50.114;8.662;2022-07-29T03:58:45;9.48;;;2.78;;
40701;SDS011;26387;50.114;8.662;2022-07-29T04:01:11;6.70;;;2.70;;
40701;SDS011;26387;50.114;8.662;2022-07-29T04:03:38;7.40;;;3.00;;
40701;SDS011;26387;50.114;8.662;2022-07-29T04:06:05;11.25;;;3.03;;
40701;SDS011;26387;50.114;8.662;2022-07-29T04:08:32;6.22;;;2.92;;
40701;SDS011;26387;50.114;8.662;2022-07-29T04:10:59;4.57;;;2.50;;
40701;SDS011;26387;50.114;8.662;2022-07-29T04:13:26;8.77;;;3.00;;
40701;SDS011;26387;50.114;8.662;2022-07-29T04:15:51;6.22;;;2.80;;
40701;SDS011;26387;50.114;8.662;2022-07-29T04:18:17;8.00;;;3.00;;
40701;SDS011;26387;50.114;8.662;2022-07-29T04:20:42;6.43;;;2.60;;
40701;SDS011;26387;50.114;8.662;2022-07-29T04:23:08;7.15;;;2.67;;
40701;SDS011;26387;50.114;8.662;2022-07-29T04:25:36;7.35;;;3.15;;
40701;SDS011;26387;50.114;8.662;2022-07-29T04:28:03;6.75;;;2.75;;
40701;SDS011;26387;50.114;8.662;2022-07-29T04:30:30;7.10;;;2.70;;
40701;SDS011;26387;50.114;8.662;2022-07-29T04:32:57;7.50;;;2.83;;
40701;SDS011;26387;50.114;8.662;2022-07-29T04:35:23;6.22;;;3.00;;
40701;SDS011;26387;50.114;8.662;2022-07-29T04:37:49;7.50;;;2.88;;
40701;SDS011;26387;50.114;8.662;2022-07-29T04:40:14;6.65;;;2.90;;
40701;SDS011;26387;50.114;8.662;2022-07-29T04:42:40;5.45;;;2.20;;
40701;SDS011;26387;50.114;8.662;2022-07-29T04:45:05;6.15;;;2.60;;
40701;SDS011;26387;50.114;8.662;2022-07-29T04:47:31;10.85;;;2.88;;
40701;SDS011;26387;50.114;8.662;2022-07-29T04:49:57;11.93;;;2.63;;
40701;SDS011;26387;50.114;8.662;2022-07-29T04:52:23;5.68;;;2.55;;
40701;SDS011;26387;50.114;8.662;2022-07-29T04:54:49;7.72;;;2.42;;
40701;SDS011;26387;50.114;8.662;2022-07-29T04:57:14;8.45;;;3.10;;
40701;SDS011;26387;50.114;8.662;2022-07-29T04:59:40;8.90;;;3.00;;
40701;SDS011;26387;50.114;8.662;2022-07-29T05:02:05;9.35;;;2.70;;
40701;SDS011;26387;50.114;8.662;2022-07-29T05:04:31;8.80;;;3.00;;
40701;SDS011;26387;50.114;8.662;2022-07-29T05:06:56;11.60;;;2.78;;
40701;SDS011;26387;50.114;8.662;2022-07-29T05:09:22;8.05;;;2.50;;
40701;SDS011;26387;50.114;8.662;2022-07-29T05:11:48;6.97;;;2.63;;
40701;SDS011;26387;50.114;8.662;2022-07-29T05:14:13;11.20;;;2.70;;
40701;SDS011;26387;50.114;8.662;2022-07-29T05:16:39;11.63;;;2.80;;
40701;SDS011;26387;50.114;8.662;2022-07-29T05:19:05;9.98;;;2.60;;
40701;SDS011;26387;50.114;8.662;2022-07-29T05:21:30;9.88;;;2.60;;
40701;SDS011;26387;50.114;8.662;2022-07-29T05:23:56;7.07;;;2.80;;
40701;SDS011;26387;50.114;8.662;2022-07-29T05:26:22;8.25;;;2.40;;
40701;SDS011;26387;50.114;8.662;2022-07-29T05:28:47;8.73;;;2.83;;
40701;SDS011;26387;50.114;8.662;2022-07-29T05:31:14;9.48;;;3.22;;
40701;SDS011;26387;50.114;8.662;2022-07-29T05:33:40;9.65;;;2.80;;
40701;SDS011;26387;50.114;8.662;2022-07-29T05:36:06;9.43;;;3.10;;
40701;SDS011;26387;50.114;8.662;2022-07-29T05:38:35;6.30;;;2.75;;
40701;SDS011;26387;50.114;8.662;2022-07-29T05:41:01;5.60;;;2.60;;
40701;SDS011;26387;50.114;8.662;2022-07-29T05:43:27;6.28;;;2.40;;
40701;SDS011;26387;50.114;8.662;2022-07-29T05:45:53;6.95;;;2.60;;
40701;SDS011;26387;50.114;8.662;2022-07-29T05:48:19;8.65;;;2.90;;
40701;SDS011;26387;50.114;8.662;2022-07-29T05:50:45;8.70;;;2.50;;
40701;SDS011;26387;50.114;8.662;2022-07-29T05:53:10;7.95;;;2.65;;
40701;SDS011;26387;50.114;8.662;2022-07-29T05:55:36;11.60;;;2.80;;
40701;SDS011;26387;50.114;8.662;2022-07-29T05:58:01;6.75;;;2.72;;
40701;SDS011;26387;50.114;8.662;2022-07-29T06:00:27;8.75;;;3.20;;
40701;SDS011;26387;50.114;8.662;2022-07-29T06:02:52;10.95;;;2.75;;
40701;SDS011;26387;50.114;8.662;2022-07-29T06:05:18;7.20;;;2.25;;
40701;SDS011;26387;50.114;8.662;2022-07-29T06:07:43;10.75;;;3.25;;
40701;SDS011;26387;50.114;8.662;2022-07-29T06:10:09;7.78;;;3.38;;
40701;SDS011;26387;50.114;8.662;2022-07-29T06:12:35;8.73;;;3.20;;
40701;SDS011;26387;50.114;8.662;2022-07-29T06:15:01;10.93;;;3.13;;
40701;SDS011;26387;50.114;8.662;2022-07-29T06:17:26;8.02;;;3.08;;
40701;SDS011;26387;50.114;8.662;2022-07-29T06:19:52;6.70;;;2.45;;
40701;SDS011;26387;50.114;8.662;2022-07-29T06:22:18;13.77;;;3.17;;
40701;SDS011;26387;50.114;8.662;2022-07-29T06:24:43;6.97;;;2.40;;
40701;SDS011;26387;50.114;8.662;2022-07-29T06:27:09;10.02;;;2.70;;
40701;SDS011;26387;50.114;8.662;2022-07-29T06:29:36;9.90;;;3.33;;
40701;SDS011;26387;50.114;8.662;2022-07-29T06:32:01;12.43;;;3.00;;
40701;SDS011;26387;50.114;8.662;2022-07-29T06:34:27;13.13;;;3.42;;
40701;SDS011;26387;50.114;8.662;2022-07-29T06:36:53;7.57;;;2.83;;
40701;SDS011;26387;50.114;8.662;2022-07-29T06:39:19;3.35;;;2.38;;
40701;SDS011;26387;50.114;8.662;2022-07-29T06:41:48;8.98;;;3.05;;
40701;SDS011;26387;50.114;8.662;2022-07-29T06:44:15;10.43;;;3.10;;
40701;SDS011;26387;50.114;8.662;2022-07-29T06:46:41;8.98;;;2.90;;
40701;SDS011;26387;50.114;8.662;2022-07-29T06:49:07;10.40;;;3.35;;
40701;SDS011;26387;50.114;8.662;2022-07-29T06:51:32;11.02;;;2.72;;
40701;SDS011;26387;50.114;8.662;2022-07-29T06:53:58;9.52;;;2.90;;
40701;SDS011;26387;50.114;8.662;2022-07-29T06:56:25;6.43;;;2.83;;
40701;SDS011;26387;50.114;8.662;2022-07-29T06:58:51;8.38;;;2.70;;
40701;SDS011;26387;50.114;8.662;2022-07-29T07:01:16;7.20;;;2.65;;
40701;SDS011;26387;50.114;8.662;2022-07-29T07:03:42;12.68;;;3.38;;
40701;SDS011;26387;50.114;8.662;2022-07-29T07:06:08;9.73;;;2.70;;
40701;SDS011;26387;50.114;8.662;2022-07-29T07:08:34;7.63;;;3.03;;
40701;SDS011;26387;50.114;8.662;2022-07-29T07:10:59;6.25;;;2.50;;
40701;SDS011;26387;50.114;8.662;2022-07-29T07:13:25;6.00;;;2.97;;
40701;SDS011;26387;50.114;8.662;2022-07-29T07:15:51;7.43;;;2.90;;
40701;SDS011;26387;50.114;8.662;2022-07-29T07:18:17;7.40;;;3.10;;
40701;SDS011;26387;50.114;8.662;2022-07-29T07:20:43;5.28;;;2.80;;
40701;SDS011;26387;50.114;8.662;2022-07-29T07:23:09;8.32;;;3.10;;
40701;SDS011;26387;50.114;8.662;2022-07-29T07:25:36;6.20;;;2.85;;
40701;SDS011;26387;50.114;8.662;2022-07-29T07:28:01;5.20;;;2.50;;
40701;SDS011;26387;50.114;8.662;2022-07-29T07:30:28;10.25;;;2.95;;
40701;SDS011;26387;50.114;8.662;2022-07-29T07:32:54;7.68;;;3.15;;
40701;SDS011;26387;50.114;8.662;2022-07-29T07:35:20;13.30;;;3.00;;
40701;SDS011;26387;50.114;8.662;2022-07-29T07:37:45;7.07;;;2.47;;
40701;SDS011;26387;50.114;8.662;2022-07-29T07:40:11;10.55;;;2.60;;
40701;SDS011;26387;50.114;8.662;2022-07-29T07:42:40;8.13;;;2.90;;
40701;SDS011;26387;50.114;8.662;2022-07-29T07:45:06;6.00;;;2.58;;
40701;SDS011;26387;50.114;8.662;2022-07-29T07:47:34;10.18;;;2.67;;
40701;SDS011;26387;50.114;8.662;2022-07-29T07:50:01;5.82;;;2.88;;
40701;SDS011;26387;50.114;8.662;2022-07-29T07:52:28;13.95;;;2.90;;
40701;SDS011;26387;50.114;8.662;2022-07-29T07:54:53;5.65;;;2.70;;
40701;SDS011;26387;50.114;8.662;2022-07-29T07:57:19;12.02;;;2.72;;
40701;SDS011;26387;50.114;8.662;2022-07-29T07:59:44;7.03;;;2.70;;
40701;SDS011;26387;50.114;8.662;2022-07-29T08:02:10;7.90;;;2.65;;
40701;SDS011;26387;50.114;8.662;2022-07-29T08:04:36;7.50;;;2.63;;
40701;SDS011;26387;50.114;8.662;2022-07-29T08:07:02;10.02;;;3.10;;
40701;SDS011;26387;50.114;8.662;2022-07-29T08:09:28;5.47;;;2.88;;
40701;SDS011;26387;50.114;8.662;2022-07-29T08:11:54;6.30;;;2.90;;
40701;SDS011;26387;50.114;8.662;2022-07-29T08:14:21;7.72;;;2.97;;
40701;SDS011;26387;50.114;8.662;2022-07-29T08:16:47;11.45;;;3.25;;
40701;SDS011;26387;50.114;8.662;2022-07-29T08:19:14;10.15;;;3.00;;
40701;SDS011;26387;50.114;8.662;2022-07-29T08:21:39;12.32;;;3.17;;
40701;SDS011;26387;50.114;8.662;2022-07-29T08:24:05;6.50;;;2.97;;
40701;SDS011;26387;50.114;8.662;2022-07-29T08:26:50;5.70;;;3.17;;
40701;SDS011;26387;50.114;8.662;2022-07-29T08:29:15;5.32;;;2.80;;
40701;SDS011;26387;50.114;8.662;2022-07-29T08:31:41;13.85;;;3.63;;
40701;SDS011;26387;50.114;8.662;2022-07-29T08:34:07;7.10;;;3.03;;
40701;SDS011;26387;50.114;8.662;2022-07-29T08:36:33;5.15;;;2.60;;
40701;SDS011;26387;50.114;8.662;2022-07-29T08:38:59;14.43;;;4.32;;
40701;SDS011;26387;50.114;8.662;2022-07-29T08:41:26;5.80;;;3.08;;
40701;SDS011;26387;50.114;8.662;2022-07-29T08:43:52;8.35;;;2.67;;
40701;SDS011;26387;50.114;8.662;2022-07-29T08:46:19;9.18;;;3.70;;
40701;SDS011;26387;50.114;8.662;2022-07-29T08:48:45;14.05;;;3.47;;
40701;SDS011;26387;50.114;8.662;2022-07-29T08:51:13;7.80;;;2.92;;
40701;SDS011;26387;50.114;8.662;2022-07-29T08:53:40;5.88;;;3.00;;
40701;SDS011;26387;50.114;8.662;2022-07-29T08:56:08;4.60;;;2.85;;
40701;SDS011;26387;50.114;8.662;2022-07-29T08:58:37;14.65;;;3.45;;
40701;SDS011;26387;50.114;8.662;2022-07-29T09:01:03;9.27;;;2.85;;
40701;SDS011;26387;50.114;8.662;2022-07-29T09:03:30;7.68;;;3.45;;
40701;SDS011;26387;50.114;8.662;2022-07-29T09:05:58;10.75;;;3.10;;
40701;SDS011;26387;50.114;8.662;2022-07-29T09:08:23;18.70;;;4.35;;
40701;SDS011;26387;50.114;8.662;2022-07-29T09:10:50;34.03;;;5.32;;
40701;SDS011;26387;50.114;8.662;2022-07-29T09:13:16;9.73;;;3.92;;
40701;SDS011;26387;50.114;8.662;2022-07-29T09:15:42;10.07;;;3.55;;
40701;SDS011;26387;50.114;8.662;2022-07-29T09:18:08;11.80;;;2.95;;
40701;SDS011;26387;50.114;8.662;2022-07-29T09:20:34;6.45;;;3.40;;
40701;SDS011;26387;50.114;8.662;2022-07-29T09:23:18;8.15;;;3.00;;
40701;SDS011;26387;50.114;8.662;2022-07-29T09:25:44;14.48;;;3.72;;
40701;SDS011;26387;50.114;8.662;2022-07-29T09:28:10;10.88;;;3.42;;
40701;SDS011;26387;50.114;8.662;2022-07-29T09:30:49;6.35;;;3.00;;
40701;SDS011;26387;50.114;8.662;2022-07-29T09:33:17;9.68;;;3.78;;
40701;SDS011;26387;50.114;8.662;2022-07-29T09:35:43;5.05;;;2.83;;
40701;SDS011;26387;50.114;8.662;2022-07-29T09:38:12;8.43;;;3.40;;
40701;SDS011;26387;50.114;8.662;2022-07-29T09:40:39;9.65;;;4.22;;
40701;SDS011;26387;50.114;8.662;2022-07-29T09:43:11;11.90;;;3.80;;
40701;SDS011;26387;50.114;8.662;2022-07-29T09:45:38;8.50;;;2.97;;
40701;SDS011;26387;50.114;8.662;2022-07-29T09:48:17;11.55;;;3.15;;
40701;SDS011;26387;50.114;8.662;2022-07-29T09:50:44;11.68;;;3.60;;
40701;SDS011;26387;50.114;8.662;2022-07-29T09:53:12;8.82;;;3.50;;
40701;SDS011;26387;50.114;8.662;2022-07-29T09:55:54;7.75;;;3.30;;
40701;SDS011;26387;50.114;8.662;2022-07-29T09:58:20;9.80;;;2.95;;
40701;SDS011;26387;50.114;8.662;2022-07-29T10:00:47;8.38;;;3.33;;
40701;SDS011;26387;50.114;8.662;2022-07-29T10:03:15;12.65;;;3.42;;
40701;SDS011;26387;50.114;8.662;2022-07-29T10:05:41;8.75;;;3.13;;
40701;SDS011;26387;50.114;8.662;2022-07-29T10:08:07;8.77;;;3.22;;
40701;SDS011;26387;50.114;8.662;2022-07-29T10:10:35;9.45;;;3.20;;
40701;SDS011;26387;50.114;8.662;2022-07-29T10:13:10;5.68;;;3.38;;
40701;SDS011;26387;50.114;8.662;2022-07-29T10:15:38;6.53;;;3.05;;
40701;SDS011;26387;50.114;8.662;2022-07-29T10:18:09;6.68;;;3.60;;
40701;SDS011;26387;50.114;8.662;2022-07-29T10:20:36;8.52;;;3.53;;
40701;SDS011;26387;50.114;8.662;2022-07-29T10:23:02;5.75;;;3.33;;
40701;SDS011;26387;50.114;8.662;2022-07-29T10:25:28;8.18;;;3.22;;
40701;SDS011;26387;50.114;8.662;2022-07-29T10:27:54;6.07;;;3.40;;
40701;SDS011;26387;50.114;8.662;2022-07-29T10:30:20;6.57;;;3.13;;
40701;SDS011;26387;50.114;8.662;2022-07-29T10:32:54;5.55;;;3.33;;
40701;SDS011;26387;50.114;8.662;2022-07-29T10:40:57;8.30;;;3.10;;
40701;SDS011;26387;50.114;8.662;2022-07-29T10:43:46;6.30;;;3.10;;
40701;SDS011;26387;50.114;8.662;2022-07-29T10:46:12;5.50;;;3.13;;
40701;SDS011;26387;50.114;8.662;2022-07-29T10:59:46;5.28;;;2.95;;
40701;SDS011;26387;50.114;8.662;2022-07-29T11:07:23;8.75;;;3.30;;
40701;SDS011;26387;50.114;8.662;2022-07-29T11:15:02;5.72;;;3.25;;
40701;SDS011;26387;50.114;8.662;2022-07-29T11:20:41;5.65;;;4.00;;
40701;SDS011;26387;50.114;8.662;2022-07-29T11:31:39;9.20;;;3.63;;
40701;SDS011;26387;50.114;8.662;2022-07-29T11:34:31;6.93;;;4.35;;
40701;SDS011;26387;50.114;8.662;2022-07-29T11:39:36;6.25;;;3.38;;
40701;SDS011;26387;50.114;8.662;2022-07-29T11:47:24;10.90;;;3.70;;
40701;SDS011;26387;50.114;8.662;2022-07-29T11:49:51;5.40;;;3.35;;
40701;SDS011;26387;50.114;8.662;2022-07-29T11:52:17;8.45;;;3.83;;
40701;SDS011;26387;50.114;8.662;2022-07-29T11:54:43;8.38;;;4.00;;
40701;SDS011;26387;50.114;8.662;2022-07-29T11:57:10;6.82;;;3.22;;
40701;SDS011;26387;50.114;8.662;2022-07-29T11:59:39;6.30;;;3.42;;
40701;SDS011;26387;50.114;8.662;2022-07-29T12:02:06;5.68;;;3.67;;
40701;SDS011;26387;50.114;8.662;2022-07-29T12:04:51;9.02;;;3.70;;
40701;SDS011;26387;50.114;8.662;2022-07-29T12:07:27;9.20;;;3.55;;
40701;SDS011;26387;50.114;8.662;2022-07-29T12:09:57;10.27;;;3.80;;
40701;SDS011;26387;50.114;8.662;2022-07-29T12:12:23;12.30;;;3.90;;
40701;SDS011;26387;50.114;8.662;2022-07-29T12:14:49;8.07;;;4.00;;
40701;SDS011;26387;50.114;8.662;2022-07-29T12:17:25;8.13;;;3.92;;
40701;SDS011;26387;50.114;8.662;2022-07-29T12:19:52;9.85;;;3.83;;
40701;SDS011;26387;50.114;8.662;2022-07-29T12:22:25;6.40;;;2.97;;
40701;SDS011;26387;50.114;8.662;2022-07-29T12:24:51;9.50;;;3.47;;
40701;SDS011;26387;50.114;8.662;2022-07-29T12:27:17;5.30;;;3.60;;
40701;SDS011;26387;50.114;8.662;2022-07-29T12:29:43;5.78;;;3.20;;
40701;SDS011;26387;50.114;8.662;2022-07-29T12:32:09;7.00;;;3.63;;
40701;SDS011;26387;50.114;8.662;2022-07-29T12:34:35;10.02;;;3.80;;
40701;SDS011;26387;50.114;8.662;2022-07-29T12:37:01;7.93;;;3.63;;
40701;SDS011;26387;50.114;8.662;2022-07-29T12:39:28;6.18;;;3.70;;
40701;SDS011;26387;50.114;8.662;2022-07-29T12:41:54;11.82;;;4.03;;
40701;SDS011;26387;50.114;8.662;2022-07-29T12:44:20;7.70;;;3.95;;
40701;SDS011;26387;50.114;8.662;2022-07-29T12:47:00;7.40;;;3.92;;
40701;SDS011;26387;50.114;8.662;2022-07-29T12:49:26;7.28;;;3.75;;
40701;SDS011;26387;50.114;8.662;2022-07-29T12:51:52;7.80;;;3.33;;
40701;SDS011;26387;50.114;8.662;2022-07-29T12:54:18;10.25;;;3.60;;
40701;SDS011;26387;50.114;8.662;2022-07-29T12:56:44;8.23;;;3.90;;
40701;SDS011;26387;50.114;8.662;2022-07-29T12:59:14;5.88;;;3.20;;
40701;SDS011;26387;50.114;8.662;2022-07-29T13:01:41;7.28;;;3.30;;
40701;SDS011;26387;50.114;8.662;2022-07-29T13:04:07;7.63;;;3.42;;
40701;SDS011;26387;50.114;8.662;2022-07-29T13:06:37;5.53;;;3.17;;
40701;SDS011;26387;50.114;8.662;2022-07-29T13:11:33;4.35;;;2.80;;
40701;SDS011;26387;50.114;8.662;2022-07-29T13:14:00;3.83;;;3.00;;
40701;SDS011;26387;50.114;8.662;2022-07-29T13:16:26;6.15;;;2.83;;
40701;SDS011;26387;50.114;8.662;2022-07-29T13:19:05;5.00;;;3.13;;
40701;SDS011;26387;50.114;8.662;2022-07-29T13:21:33;6.03;;;3.05;;
40701;SDS011;26387;50.114;8.662;2022-07-29T13:23:59;11.45;;;3.70;;
40701;SDS011;26387;50.114;8.662;2022-07-29T13:26:25;7.68;;;3.17;;
40701;SDS011;26387;50.114;8.662;2022-07-29T13:28:52;5.72;;;3.03;;
40701;SDS011;26387;50.114;8.662;2022-07-29T13:31:18;6.45;;;2.97;;
40701;SDS011;26387;50.114;8.662;2022-07-29T13:33:44;8.63;;;3.45;;
40701;SDS011;26387;50.114;8.662;2022-07-29T13:36:10;5.97;;;3.03;;
40701;SDS011;26387;50.114;8.662;2022-07-29T13:38:36;6.35;;;3.15;;
40701;SDS011;26387;50.114;8.662;2022-07-29T13:41:02;4.45;;;3.22;;
40701;SDS011;26387;50.114;8.662;2022-07-29T13:43:28;3.97;;;2.97;;
40701;SDS011;26387;50.114;8.662;2022-07-29T13:45:54;5.70;;;3.40;;
40701;SDS011;26387;50.114;8.662;2022-07-29T13:48:21;5.63;;;3.33;;
40701;SDS011;26387;50.114;8.662;2022-07-29T13:50:47;11.80;;;3.20;;
40701;SDS011;26387;50.114;8.662;2022-07-29T13:53:13;6.10;;;3.33;;
40701;SDS011;26387;50.114;8.662;2022-07-29T13:55:39;4.85;;;3.30;;
40701;SDS011;26387;50.114;8.662;2022-07-29T13:58:05;6.00;;;3.17;;
40701;SDS011;26387;50.114;8.662;2022-07-29T14:00:31;8.80;;;3.00;;
40701;SDS011;26387;50.114;8.662;2022-07-29T14:02:57;7.20;;;3.25;;
40701;SDS011;26387;50.114;8.662;2022-07-29T14:05:23;8.90;;;3.47;;
40701;SDS011;26387;50.114;8.662;2022-07-29T14:07:49;6.25;;;3.65;;
40701;SDS011;26387;50.114;8.662;2022-07-29T14:10:14;6.68;;;2.90;;
40701;SDS011;26387;50.114;8.662;2022-07-29T14:12:40;9.07;;;2.92;;
40701;SDS011;26387;50.114;8.662;2022-07-29T14:15:07;5.18;;;3.53;;
40701;SDS011;26387;50.114;8.662;2022-07-29T14:17:33;8.23;;;3.55;;
40701;SDS011;26387;50.114;8.662;2022-07-29T14:19:59;6.25;;;3.20;;
40701;SDS011;26387;50.114;8.662;2022-07-29T14:22:24;7.50;;;3.45;;
40701;SDS011;26387;50.114;8.662;2022-07-29T14:24:50;5.60;;;3.40;;
40701;SDS011;26387;50.114;8.662;2022-07-29T14:27:16;9.35;;;3.53;;
40701;SDS011;26387;50.114;8.662;2022-07-29T14:29:41;6.93;;;3.13;;
40701;SDS011;26387;50.114;8.662;2022-07-29T14:32:07;9.43;;;3.85;;
40701;SDS011;26387;50.114;8.662;2022-07-29T14:34:35;7.70;;;3.05;;
40701;SDS011;26387;50.114;8.662;2022-07-29T14:37:01;6.18;;;3.03;;
40701;SDS011;26387;50.114;8.662;2022-07-29T14:39:29;8.05;;;3.03;;
40701;SDS011;26387;50.114;8.662;2022-07-29T14:41:56;6.03;;;3.70;;
40701;SDS011;26387;50.114;8.662;2022-07-29T14:44:21;7.50;;;3.00;;
40701;SDS011;26387;50.114;8.662;2022-07-29T14:46:47;7.75;;;3.15;;
40701;SDS011;26387;50.114;8.662;2022-07-29T14:49:12;13.20;;;3.00;;
40701;SDS011;26387;50.114;8.662;2022-07-29T14:51:38;7.93;;;3.10;;
40701;SDS011;26387;50.114;8.662;2022-07-29T14:54:03;3.53;;;2.90;;
40701;SDS011;26387;50.114;8.662;2022-07-29T14:56:29;4.75;;;2.85;;
40701;SDS011;26387;50.114;8.662;2022-07-29T14:58:55;5.18;;;3.05;;
40701;SDS011;26387;50.114;8.662;2022-07-29T15:01:22;5.22;;;2.80;;
40701;SDS011;26387;50.114;8.662;2022-07-29T15:03:48;4.35;;;2.80;;
40701;SDS011;26387;50.114;8.662;2022-07-29T15:06:13;5.63;;;2.70;;
40701;SDS011;26387;50.114;8.662;2022-07-29T15:08:39;6.00;;;3.05;;
40701;SDS011;26387;50.114;8.662;2022-07-29T15:11:05;5.20;;;3.00;;
40701;SDS011;26387;50.114;8.662;2022-07-29T15:13:30;5.13;;;3.25;;
40701;SDS011;26387;50.114;8.662;2022-07-29T15:15:56;4.75;;;3.05;;
40701;SDS011;26387;50.114;8.662;2022-07-29T15:18:21;4.80;;;2.83;;
40701;SDS011;26387;50.114;8.662;2022-07-29T15:20:47;5.95;;;3.08;;
40701;SDS011;26387;50.114;8.662;2022-07-29T15:23:12;4.70;;;2.80;;
40701;SDS011;26387;50.114;8.662;2022-07-29T15:25:38;6.88;;;2.83;;
40701;SDS011;26387;50.114;8.662;2022-07-29T15:28:04;4.03;;;2.50;;
40701;SDS011;26387;50.114;8.662;2022-07-29T15:30:33;3.58;;;2.50;;
40701;SDS011;26387;50.114;8.662;2022-07-29T15:33:04;3.33;;;2.53;;
40701;SDS011;26387;50.114;8.662;2022-07-29T15:35:30;7.80;;;3.10;;
40701;SDS011;26387;50.114;8.662;2022-07-29T15:37:56;6.57;;;3.03;;
40701;SDS011;26387;50.114;8.662;2022-07-29T15:40:21;3.78;;;1.98;;